Time;durP1;ratioP1;P1;durP2;ratioP2;P2;SDS_P1;SDS_P2;PMS_P1;PMS_P2;Temp;Humidity;BMP_temperature;BMP_pressure;BME280_temperature;BME280_humidity;BME280_pressure;Samples;Min_cycle;Max_cycle;Signal;HPM_P1;HPM_P2
2024/01/26 00:01:53;;;;;;;;;;;19.90;45.20;;;;;;5069721;28;19927;-53
2024/01/26 00:04:20;;;;;;;;;;;19.90;45.20;;;;;;5052774;28;19928;-54
2024/01/26 00:06:47;;;;;;;;;;;19.90;45.20;;;;;;5052127;28;19931;-53
2024/01/26 00:09:15;;;;;;;;;;;19.90;45.20;;;;;;5069249;28;19943;-55
2024/01/26 00:11:43;;;;;;;;;;;19.90;45.20;;;;;;5066406;28;19927;-53
2024/01/26 00:14:10;;;;;;;;;;;19.90;45.20;;;;;;5072252;28;19982;-54
2024/01/26 00:16:37;;;;;;;;;;;19.90;45.20;;;;;;5054535;28;19978;-56
2024/01/26 00:19:03;;;;;;;;;;;19.90;45.20;;;;;;5055503;28;19939;-55
2024/01/26 00:21:30;;;;;;;;;;;19.90;45.20;;;;;;5056190;28;19920;-56
2024/01/26 00:23:57;;;;;;;;;;;19.90;45.20;;;;;;5055201;28;19928;-54
2024/01/26 00:26:25;;;;;;;;;;;19.90;45.10;;;;;;5073628;28;19928;-56
2024/01/26 00:28:52;;;;;;;;;;;19.90;45.10;;;;;;5055829;28;19932;-55
2024/01/26 00:31:18;;;;;;;;;;;19.90;45.10;;;;;;5055723;28;19927;-54
2024/01/26 00:33:45;;;;;;;;;;;19.90;45.10;;;;;;5056114;28;19928;-57
2024/01/26 00:36:12;;;;;;;;;;;19.90;45.10;;;;;;5073310;28;19938;-55
2024/01/26 00:38:39;;;;;;;;;;;19.90;45.10;;;;;;5055085;28;20013;-57
2024/01/26 00:41:06;;;;;;;;;;;19.80;45.10;;;;;;5072022;28;19925;-54
2024/01/26 00:43:34;;;;;;;;;;;19.90;45.10;;;;;;5054855;28;19969;-54
2024/01/26 00:46:01;;;;;;;;;;;19.90;45.10;;;;;;5055464;28;19974;-57
2024/01/26 00:48:27;;;;;;;;;;;19.80;45.00;;;;;;5073269;28;19921;-54
2024/01/26 00:50:54;;;;;;;;;;;19.80;45.10;;;;;;5073731;28;19920;-51
2024/01/26 00:53:21;;;;;;;;;;;19.90;45.10;;;;;;5055663;28;20285;-54
2024/01/26 00:55:49;;;;;;;;;;;19.80;45.10;;;;;;5057940;28;20263;-56
2024/01/26 00:58:16;;;;;;;;;;;19.80;45.10;;;;;;5055338;28;19927;-54
2024/01/26 01:00:44;;;;;;;;;;;19.90;45.10;;;;;;5053679;28;19920;-54
2024/01/26 01:03:10;;;;;;;;;;;19.80;45.00;;;;;;5066661;28;19920;-53
2024/01/26 01:05:38;;;;;;;;;;;19.80;45.10;;;;;;5072944;28;19934;-55
2024/01/26 01:08:05;;;;;;;;;;;19.80;45.00;;;;;;5072971;28;19982;-54
2024/01/26 01:10:31;;;;;;;;;;;19.80;45.10;;;;;;5055265;28;19960;-53
2024/01/26 01:12:58;;;;;;;;;;;19.80;45.10;;;;;;5051273;28;19920;-54
2024/01/26 01:15:25;;;;;;;;;;;19.80;45.00;;;;;;5073248;28;19920;-54
2024/01/26 01:17:53;;;;;;;;;;;19.80;45.10;;;;;;5055160;28;19924;-51
2024/01/26 01:20:20;;;;;;;;;;;19.80;45.10;;;;;;5051061;28;19921;-51
2024/01/26 01:22:47;;;;;;;;;;;19.80;45.10;;;;;;5072720;28;19924;-55
2024/01/26 01:25:14;;;;;;;;;;;19.80;45.10;;;;;;5054835;28;19933;-55
2024/01/26 01:27:40;;;;;;;;;;;19.80;45.00;;;;;;5072765;28;19928;-57
2024/01/26 01:30:07;;;;;;;;;;;19.90;45.10;;;;;;5071134;28;20397;-53
2024/01/26 01:32:35;;;;;;;;;;;19.80;45.00;;;;;;5072493;28;19920;-53
2024/01/26 01:35:03;;;;;;;;;;;19.80;45.00;;;;;;5056336;28;19928;-55
2024/01/26 01:37:30;;;;;;;;;;;19.80;45.10;;;;;;5051864;28;19921;-55
2024/01/26 01:39:56;;;;;;;;;;;19.80;45.00;;;;;;5056187;28;19928;-52
2024/01/26 01:42:23;;;;;;;;;;;19.80;45.00;;;;;;5055741;28;19986;-55
2024/01/26 01:44:50;;;;;;;;;;;19.80;45.00;;;;;;5072370;28;19920;-56
2024/01/26 01:47:17;;;;;;;;;;;19.80;45.00;;;;;;5055343;28;19971;-53
2024/01/26 01:49:44;;;;;;;;;;;19.80;45.00;;;;;;5056662;28;19920;-53
2024/01/26 01:52:12;;;;;;;;;;;19.80;45.00;;;;;;5072001;28;20017;-56
2024/01/26 01:54:39;;;;;;;;;;;19.80;45.00;;;;;;5052352;28;19920;-55
2024/01/26 01:57:05;;;;;;;;;;;19.80;45.00;;;;;;5055199;28;19920;-56
2024/01/26 01:59:32;;;;;;;;;;;19.80;45.00;;;;;;5054290;28;19925;-54
2024/01/26 02:01:59;;;;;;;;;;;19.80;45.00;;;;;;5054188;28;19920;-56
2024/01/26 02:04:26;;;;;;;;;;;19.80;45.00;;;;;;5067353;28;20060;-54
2024/01/26 02:06:56;;;;;;;;;;;19.90;45.10;;;;;;5071723;28;19928;-56
2024/01/26 02:09:24;;;;;;;;;;;19.80;45.00;;;;;;5053566;28;19920;-53
2024/01/26 02:11:51;;;;;;;;;;;19.80;45.00;;;;;;5051612;28;19924;-57
2024/01/26 02:14:17;;;;;;;;;;;19.80;45.00;;;;;;5053236;28;19925;-56
2024/01/26 02:16:52;;;;;;;;;;;19.80;45.00;;;;;;5053823;28;19928;-57
2024/01/26 02:19:19;;;;;;;;;;;19.80;45.00;;;;;;5053813;28;20053;-55
2024/01/26 02:21:46;;;;;;;;;;;19.80;45.00;;;;;;5054635;28;19931;-55
2024/01/26 02:24:14;;;;;;;;;;;19.80;45.00;;;;;;5053877;28;19928;-57
2024/01/26 02:26:41;;;;;;;;;;;19.80;45.00;;;;;;5069029;28;19927;-57
2024/01/26 02:29:07;;;;;;;;;;;19.80;45.00;;;;;;5069789;28;19970;-57
2024/01/26 02:31:34;;;;;;;;;;;19.80;45.00;;;;;;5054452;28;19921;-56
2024/01/26 02:34:01;;;;;;;;;;;19.80;45.00;;;;;;5068732;28;20141;-57
2024/01/26 02:36:28;;;;;;;;;;;19.80;45.00;;;;;;5070826;28;19924;-55
2024/01/26 02:38:55;;;;;;;;;;;19.80;45.00;;;;;;5070323;28;19974;-57
2024/01/26 02:41:23;;;;;;;;;;;19.80;45.00;;;;;;5053401;28;19932;-56
2024/01/26 02:43:50;;;;;;;;;;;19.80;44.90;;;;;;5071910;28;19928;-55
2024/01/26 02:46:17;;;;;;;;;;;19.80;45.00;;;;;;5047688;28;20015;-57
2024/01/26 02:48:44;;;;;;;;;;;19.80;45.00;;;;;;5070450;28;19970;-55
2024/01/26 02:51:10;;;;;;;;;;;19.80;45.00;;;;;;5071175;28;19921;-57
2024/01/26 02:53:39;;;;;;;;;;;19.80;45.00;;;;;;5071683;28;19924;-54
2024/01/26 02:56:06;;;;;;;;;;;19.80;45.00;;;;;;5052103;28;19932;-55
2024/01/26 02:58:34;;;;;;;;;;;19.80;45.00;;;;;;5070902;28;19931;-57
2024/01/26 03:01:01;;;;;;;;;;;19.80;45.00;;;;;;5068318;28;19932;-59
2024/01/26 03:03:27;;;;;;;;;;;19.80;45.00;;;;;;5052430;28;19931;-54
2024/01/26 03:05:54;;;;;;;;;;;19.80;45.00;;;;;;5070011;28;19920;-57
2024/01/26 03:08:21;;;;;;;;;;;19.80;45.00;;;;;;5052949;28;19925;-57
2024/01/26 03:10:50;;;;;;;;;;;19.80;44.90;;;;;;5053095;28;19936;-55
2024/01/26 03:13:18;;;;;;;;;;;19.80;45.00;;;;;;5054502;28;19925;-58
2024/01/26 03:15:49;;;;;;;;;;;19.80;45.00;;;;;;5070470;28;20004;-55
2024/01/26 03:18:16;;;;;;;;;;;19.80;45.00;;;;;;5055262;28;19963;-57
2024/01/26 03:20:43;;;;;;;;;;;19.80;45.00;;;;;;5038902;28;19924;-57
2024/01/26 03:23:10;;;;;;;;;;;19.80;45.00;;;;;;5053304;28;20019;-55
2024/01/26 03:25:37;;;;;;;;;;;19.80;45.00;;;;;;5068139;28;19950;-56
2024/01/26 03:28:04;;;;;;;;;;;19.80;45.00;;;;;;5070182;28;19920;-56
2024/01/26 03:30:30;;;;;;;;;;;19.80;45.00;;;;;;5070805;28;19920;-56
2024/01/26 03:32:59;;;;;;;;;;;19.80;45.00;;;;;;5052878;28;19921;-57
2024/01/26 03:35:26;;;;;;;;;;;19.80;45.00;;;;;;5055216;28;19928;-55
2024/01/26 03:37:52;;;;;;;;;;;19.80;45.00;;;;;;5052816;28;19928;-55
2024/01/26 03:40:20;;;;;;;;;;;19.80;44.90;;;;;;5067996;28;19924;-55
2024/01/26 03:42:46;;;;;;;;;;;19.80;45.00;;;;;;5045033;28;19924;-55
2024/01/26 03:45:13;;;;;;;;;;;19.80;45.00;;;;;;5052209;28;20007;-58
2024/01/26 03:47:40;;;;;;;;;;;19.80;45.00;;;;;;5052583;28;19920;-55
2024/01/26 03:50:09;;;;;;;;;;;19.80;44.90;;;;;;5074479;28;19927;-54
2024/01/26 03:52:35;;;;;;;;;;;19.80;45.00;;;;;;5056560;28;19943;-56
2024/01/26 03:55:02;;;;;;;;;;;19.80;45.00;;;;;;5053639;28;19928;-56
2024/01/26 03:57:29;;;;;;;;;;;19.80;45.00;;;;;;5058854;28;19978;-53
2024/01/26 03:59:55;;;;;;;;;;;19.80;45.00;;;;;;5053385;28;19927;-55
2024/01/26 04:02:22;;;;;;;;;;;19.80;45.00;;;;;;5075503;28;20269;-54
2024/01/26 04:04:49;;;;;;;;;;;19.80;45.00;;;;;;5058893;28;19932;-54
2024/01/26 04:07:17;;;;;;;;;;;19.80;45.00;;;;;;5056273;28;19945;-55
2024/01/26 04:09:44;;;;;;;;;;;19.80;45.00;;;;;;5071698;28;19924;-58
2024/01/26 04:12:10;;;;;;;;;;;19.80;45.00;;;;;;5061400;28;19946;-53
2024/01/26 04:14:37;;;;;;;;;;;19.80;45.00;;;;;;5072218;28;20420;-57
2024/01/26 04:17:04;;;;;;;;;;;19.80;45.00;;;;;;5053620;28;19920;-58
2024/01/26 04:19:31;;;;;;;;;;;19.80;45.00;;;;;;5073837;28;19935;-55
2024/01/26 04:21:58;;;;;;;;;;;19.80;45.00;;;;;;5056136;28;19928;-55
2024/01/26 04:24:26;;;;;;;;;;;19.80;45.00;;;;;;5055712;28;19921;-56
2024/01/26 04:26:52;;;;;;;;;;;19.80;45.00;;;;;;5056344;28;19921;-56
2024/01/26 04:29:19;;;;;;;;;;;19.80;45.00;;;;;;5056036;28;19925;-54
2024/01/26 04:31:46;;;;;;;;;;;19.80;45.00;;;;;;5076479;28;19924;-57
2024/01/26 04:34:13;;;;;;;;;;;19.80;45.00;;;;;;5069357;28;19920;-57
2024/01/26 04:36:45;;;;;;;;;;;19.80;45.00;;;;;;5055631;28;19925;-55
2024/01/26 04:39:12;;;;;;;;;;;19.80;45.00;;;;;;5055656;28;19980;-56
2024/01/26 04:41:40;;;;;;;;;;;19.80;45.00;;;;;;5054670;28;19999;-56
2024/01/26 04:44:07;;;;;;;;;;;19.80;45.00;;;;;;5057748;28;19978;-56
2024/01/26 04:46:33;;;;;;;;;;;19.80;45.00;;;;;;5073556;28;19967;-58
2024/01/26 04:49:00;;;;;;;;;;;19.80;45.00;;;;;;5072375;28;19932;-54
2024/01/26 04:51:27;;;;;;;;;;;19.80;45.00;;;;;;5070505;28;19925;-56
2024/01/26 04:53:54;;;;;;;;;;;19.80;45.10;;;;;;5068448;28;19932;-57
2024/01/26 04:56:21;;;;;;;;;;;19.80;45.00;;;;;;5055434;28;19920;-56
2024/01/26 04:58:50;;;;;;;;;;;19.80;45.20;;;;;;5056928;28;19974;-56
2024/01/26 05:01:16;;;;;;;;;;;19.80;45.00;;;;;;5057303;28;19920;-54
2024/01/26 05:03:43;;;;;;;;;;;19.80;45.00;;;;;;5072924;28;19928;-51
2024/01/26 05:06:10;;;;;;;;;;;19.80;45.00;;;;;;5053396;28;19931;-57
2024/01/26 05:08:38;;;;;;;;;;;19.80;45.10;;;;;;5054731;28;19927;-57
2024/01/26 05:11:05;;;;;;;;;;;19.80;45.10;;;;;;5070773;28;20133;-55
2024/01/26 05:13:32;;;;;;;;;;;19.80;45.10;;;;;;5063335;28;20034;-54
2024/01/26 05:16:00;;;;;;;;;;;19.80;45.00;;;;;;5057242;28;19920;-55
2024/01/26 05:18:28;;;;;;;;;;;19.80;45.10;;;;;;5072924;28;19924;-55
2024/01/26 05:20:55;;;;;;;;;;;19.80;45.10;;;;;;5074306;28;19921;-54
2024/01/26 05:23:21;;;;;;;;;;;19.80;45.10;;;;;;5073591;28;19920;-55
2024/01/26 05:25:48;;;;;;;;;;;19.80;45.10;;;;;;5056425;28;19970;-55
2024/01/26 05:28:15;;;;;;;;;;;19.80;45.10;;;;;;5074559;28;19926;-54
2024/01/26 05:30:42;;;;;;;;;;;19.80;45.10;;;;;;5053833;28;19920;-51
2024/01/26 05:33:10;;;;;;;;;;;19.80;45.10;;;;;;5071453;28;19981;-56
2024/01/26 05:35:38;;;;;;;;;;;19.80;45.10;;;;;;5057078;28;19922;-56
2024/01/26 05:38:05;;;;;;;;;;;19.80;45.10;;;;;;5058884;28;20025;-56
2024/01/26 05:40:31;;;;;;;;;;;19.80;45.00;;;;;;5056474;28;20411;-53
2024/01/26 05:42:58;;;;;;;;;;;19.80;45.10;;;;;;5059037;28;19920;-55
2024/01/26 05:45:25;;;;;;;;;;;19.80;45.10;;;;;;5056567;28;19920;-53
2024/01/26 05:47:52;;;;;;;;;;;19.80;45.10;;;;;;5056423;28;19926;-57
2024/01/26 05:50:21;;;;;;;;;;;19.80;45.10;;;;;;5058772;28;19927;-56
2024/01/26 05:52:48;;;;;;;;;;;19.80;45.10;;;;;;5044145;28;19923;-55
2024/01/26 05:55:15;;;;;;;;;;;19.80;45.10;;;;;;5039020;28;19925;-55
2024/01/26 05:57:43;;;;;;;;;;;19.80;45.10;;;;;;5043477;28;19920;-55
2024/01/26 06:00:10;;;;;;;;;;;19.80;45.10;;;;;;5073748;28;19920;-55
2024/01/26 06:02:36;;;;;;;;;;;19.80;45.10;;;;;;5058671;28;19969;-54
2024/01/26 06:05:03;;;;;;;;;;;19.80;45.10;;;;;;5053990;28;19943;-54
2024/01/26 06:07:32;;;;;;;;;;;19.80;45.10;;;;;;5058620;28;19920;-55
2024/01/26 06:09:58;;;;;;;;;;;19.80;45.10;;;;;;5073794;28;19966;-55
2024/01/26 06:12:25;;;;;;;;;;;19.80;45.10;;;;;;5055943;28;19966;-58
2024/01/26 06:14:52;;;;;;;;;;;19.80;45.10;;;;;;5055611;28;19920;-56
2024/01/26 06:17:19;;;;;;;;;;;19.80;45.10;;;;;;5058601;28;19920;-53
2024/01/26 06:19:45;;;;;;;;;;;19.80;45.10;;;;;;5066107;28;19921;-51
2024/01/26 06:22:12;;;;;;;;;;;19.80;45.10;;;;;;5073000;28;19976;-54
2024/01/26 06:24:40;;;;;;;;;;;19.80;45.10;;;;;;5056541;28;19920;-55
2024/01/26 06:27:07;;;;;;;;;;;19.80;45.10;;;;;;5056257;28;20014;-55
2024/01/26 06:29:34;;;;;;;;;;;19.80;45.10;;;;;;5057888;28;19920;-54
2024/01/26 06:32:01;;;;;;;;;;;19.80;45.10;;;;;;5055153;28;19973;-53
2024/01/26 06:34:27;;;;;;;;;;;19.80;45.20;;;;;;5056445;28;19942;-53
2024/01/26 06:36:54;;;;;;;;;;;19.80;45.10;;;;;;5057848;28;19977;-54
2024/01/26 06:39:21;;;;;;;;;;;19.80;45.10;;;;;;5073447;28;19931;-55
2024/01/26 06:41:49;;;;;;;;;;;19.80;45.10;;;;;;5073790;28;19967;-53
2024/01/26 06:44:16;;;;;;;;;;;19.80;45.20;;;;;;5055961;28;19963;-55
2024/01/26 06:46:43;;;;;;;;;;;19.80;45.10;;;;;;5054228;28;19942;-55
2024/01/26 06:49:10;;;;;;;;;;;19.80;45.20;;;;;;5057806;28;19920;-55
2024/01/26 06:51:37;;;;;;;;;;;19.80;45.10;;;;;;5057312;28;19927;-51
2024/01/26 06:54:04;;;;;;;;;;;19.80;45.10;;;;;;5075125;28;19959;-53
2024/01/26 06:56:30;;;;;;;;;;;19.80;45.20;;;;;;5058176;28;19924;-56
2024/01/26 06:58:59;;;;;;;;;;;19.80;45.20;;;;;;5053106;28;19969;-55
2024/01/26 07:01:25;;;;;;;;;;;19.80;45.20;;;;;;5055181;28;19979;-55
2024/01/26 07:03:52;;;;;;;;;;;19.80;45.20;;;;;;5052980;28;19950;-54
2024/01/26 07:06:19;;;;;;;;;;;19.80;45.20;;;;;;5053509;28;19920;-55
2024/01/26 07:08:45;;;;;;;;;;;19.80;45.20;;;;;;5051884;28;19951;-53
2024/01/26 07:11:13;;;;;;;;;;;19.80;45.20;;;;;;5053957;28;19928;-52
2024/01/26 07:13:40;;;;;;;;;;;19.80;45.20;;;;;;5052473;28;19935;-56
2024/01/26 07:16:08;;;;;;;;;;;19.80;45.20;;;;;;5066128;28;19928;-57
2024/01/26 07:18:35;;;;;;;;;;;19.80;45.30;;;;;;5049690;28;19921;-54
2024/01/26 07:21:05;;;;;;;;;;;19.80;45.30;;;;;;5068964;28;19978;-55
2024/01/26 07:23:32;;;;;;;;;;;19.80;45.20;;;;;;5067596;28;19928;-54
2024/01/26 07:25:59;;;;;;;;;;;19.80;45.30;;;;;;5050369;28;19925;-58
2024/01/26 07:28:25;;;;;;;;;;;19.80;45.30;;;;;;5071375;28;19932;-58
2024/01/26 07:30:52;;;;;;;;;;;19.80;45.30;;;;;;5047300;28;19928;-58
2024/01/26 07:33:20;;;;;;;;;;;19.80;45.30;;;;;;5049145;28;19924;-56
2024/01/26 07:35:47;;;;;;;;;;;19.80;45.30;;;;;;5065620;28;19974;-55
2024/01/26 07:38:13;;;;;;;;;;;19.80;45.30;;;;;;5055094;28;20315;-55
2024/01/26 07:40:40;;;;;;;;;;;19.80;45.30;;;;;;5041194;28;19967;-57
2024/01/26 07:43:08;;;;;;;;;;;19.80;45.30;;;;;;5054505;28;19925;-58
2024/01/26 07:45:35;;;;;;;;;;;19.80;45.30;;;;;;5065953;28;19924;-57
2024/01/26 07:48:02;;;;;;;;;;;19.80;45.30;;;;;;5049810;28;19936;-56
2024/01/26 07:50:30;;;;;;;;;;;19.80;45.30;;;;;;5054710;28;19982;-57
2024/01/26 07:52:57;;;;;;;;;;;19.80;45.30;;;;;;5054407;28;19932;-57
2024/01/26 07:55:24;;;;;;;;;;;19.80;45.30;;;;;;5054247;28;19921;-57
2024/01/26 07:57:51;;;;;;;;;;;19.80;45.30;;;;;;5052681;28;19931;-56
2024/01/26 08:00:18;;;;;;;;;;;19.80;45.30;;;;;;5048804;28;19925;-56
2024/01/26 08:02:45;;;;;;;;;;;19.80;45.20;;;;;;5049481;28;19974;-55
2024/01/26 08:05:11;;;;;;;;;;;19.80;45.30;;;;;;5050373;28;19946;-56
2024/01/26 08:07:39;;;;;;;;;;;19.80;45.30;;;;;;5063571;28;19932;-57
2024/01/26 08:10:07;;;;;;;;;;;19.80;45.80;;;;;;5050033;28;20397;-57
2024/01/26 08:12:33;;;;;;;;;;;19.80;45.30;;;;;;5049280;28;19966;-56
2024/01/26 08:15:00;;;;;;;;;;;19.80;45.20;;;;;;5068192;28;19920;-54
2024/01/26 08:17:27;;;;;;;;;;;19.80;45.30;;;;;;5041907;28;19966;-58
2024/01/26 08:19:54;;;;;;;;;;;19.80;45.30;;;;;;5062646;28;19921;-55
2024/01/26 08:22:20;;;;;;;;;;;19.80;45.20;;;;;;5069780;28;19933;-55
2024/01/26 08:24:49;;;;;;;;;;;19.80;45.30;;;;;;5050467;28;19920;-53
2024/01/26 08:27:15;;;;;;;;;;;19.80;45.20;;;;;;5066696;28;20011;-55
2024/01/26 08:29:42;;;;;;;;;;;19.80;45.20;;;;;;5049006;28;19931;-54
2024/01/26 08:32:09;;;;;;;;;;;19.80;45.20;;;;;;5052879;28;19925;-55
2024/01/26 08:34:36;;;;;;;;;;;19.80;45.30;;;;;;5058706;28;19951;-58
2024/01/26 08:37:03;;;;;;;;;;;19.80;45.20;;;;;;5052213;28;19924;-57
2024/01/26 08:39:29;;;;;;;;;;;19.80;45.20;;;;;;5049250;28;20322;-56
2024/01/26 08:41:58;;;;;;;;;;;19.80;45.20;;;;;;5058306;28;19926;-55
2024/01/26 08:44:24;;;;;;;;;;;19.80;45.20;;;;;;5054962;28;19928;-57
2024/01/26 08:46:51;;;;;;;;;;;19.80;45.20;;;;;;5053762;28;19932;-58
2024/01/26 08:49:18;;;;;;;;;;;19.80;45.20;;;;;;5058606;28;19920;-58
2024/01/26 08:51:45;;;;;;;;;;;19.80;45.20;;;;;;5069789;28;19927;-57
2024/01/26 08:54:12;;;;;;;;;;;19.80;45.20;;;;;;5052636;28;19932;-58
2024/01/26 08:56:40;;;;;;;;;;;19.90;45.20;;;;;;5052190;28;19920;-57
2024/01/26 08:59:08;;;;;;;;;;;19.80;45.20;;;;;;5053621;28;19920;-58
2024/01/26 09:01:36;;;;;;;;;;;19.80;45.20;;;;;;5053241;28;20427;-55
2024/01/26 09:04:05;;;;;;;;;;;19.80;45.20;;;;;;5069653;28;19924;-57
2024/01/26 09:06:31;;;;;;;;;;;19.80;45.20;;;;;;5052331;28;20027;-57
2024/01/26 09:08:58;;;;;;;;;;;19.80;45.20;;;;;;5072077;28;19977;-56
2024/01/26 09:11:25;;;;;;;;;;;19.80;45.20;;;;;;5058320;28;19920;-58
2024/01/26 09:13:52;;;;;;;;;;;19.80;45.20;;;;;;5054025;28;19932;-58
2024/01/26 09:16:20;;;;;;;;;;;19.80;45.20;;;;;;5052363;28;19920;-58
2024/01/26 09:18:47;;;;;;;;;;;19.90;45.20;;;;;;5050786;28;19939;-57
2024/01/26 09:21:14;;;;;;;;;;;19.80;45.20;;;;;;5050068;28;19985;-59
2024/01/26 09:23:40;;;;;;;;;;;19.80;45.20;;;;;;5054383;28;19929;-55
2024/01/26 09:26:07;;;;;;;;;;;19.90;45.30;;;;;;5070980;28;19929;-57
2024/01/26 09:28:34;;;;;;;;;;;19.90;45.20;;;;;;5056664;28;19924;-57
2024/01/26 09:31:01;;;;;;;;;;;19.80;45.20;;;;;;5072514;28;19956;-54
2024/01/26 09:33:29;;;;;;;;;;;19.80;45.20;;;;;;5051680;28;19994;-57
2024/01/26 09:35:56;;;;;;;;;;;19.80;45.20;;;;;;5069843;28;19920;-58
2024/01/26 09:38:23;;;;;;;;;;;19.80;45.20;;;;;;5070902;28;19970;-58
2024/01/26 09:40:50;;;;;;;;;;;19.80;45.20;;;;;;5057444;28;19921;-58
2024/01/26 09:43:16;;;;;;;;;;;19.90;45.30;;;;;;5053950;28;19932;-59
2024/01/26 09:45:43;;;;;;;;;;;19.90;45.30;;;;;;5069121;28;20302;-57
2024/01/26 09:48:10;;;;;;;;;;;19.80;45.30;;;;;;5052010;28;20274;-56
2024/01/26 09:50:38;;;;;;;;;;;19.90;45.30;;;;;;5049750;28;19920;-56
2024/01/26 09:53:05;;;;;;;;;;;19.90;45.30;;;;;;5072888;28;19927;-57
2024/01/26 09:55:32;;;;;;;;;;;19.90;45.40;;;;;;5052155;28;20110;-58
2024/01/26 09:57:59;;;;;;;;;;;19.90;45.30;;;;;;5055568;28;19943;-59
2024/01/26 10:00:25;;;;;;;;;;;19.90;45.40;;;;;;5072484;28;19928;-55
2024/01/26 10:02:52;;;;;;;;;;;19.90;45.40;;;;;;5050274;28;19977;-58
2024/01/26 10:05:19;;;;;;;;;;;19.90;45.40;;;;;;5054742;28;19931;-56
2024/01/26 10:07:47;;;;;;;;;;;19.90;45.40;;;;;;5071629;28;19926;-57
2024/01/26 10:10:14;;;;;;;;;;;19.90;45.40;;;;;;5055378;28;20172;-55
2024/01/26 10:12:41;;;;;;;;;;;19.90;45.40;;;;;;5053360;28;19920;-57
2024/01/26 10:15:09;;;;;;;;;;;19.90;45.40;;;;;;5056911;28;19920;-55
2024/01/26 10:17:35;;;;;;;;;;;19.90;45.40;;;;;;5055276;28;20032;-57
2024/01/26 10:20:07;;;;;;;;;;;19.90;45.40;;;;;;5049261;28;19973;-57
2024/01/26 10:22:34;;;;;;;;;;;19.90;45.50;;;;;;5064626;28;19928;-58
2024/01/26 10:25:02;;;;;;;;;;;19.90;45.50;;;;;;5068242;28;19970;-57
2024/01/26 10:27:29;;;;;;;;;;;19.90;45.50;;;;;;5051744;28;19970;-57
2024/01/26 10:29:56;;;;;;;;;;;19.90;45.50;;;;;;5054740;28;19947;-57
2024/01/26 10:32:23;;;;;;;;;;;19.90;45.60;;;;;;5053169;28;19921;-58
2024/01/26 10:34:50;;;;;;;;;;;19.90;45.50;;;;;;5052318;28;19920;-58
2024/01/26 10:37:16;;;;;;;;;;;19.90;45.60;;;;;;5047102;28;19924;-57
2024/01/26 10:39:43;;;;;;;;;;;19.90;45.50;;;;;;5051198;28;19942;-58
2024/01/26 10:42:11;;;;;;;;;;;19.90;45.50;;;;;;5067927;28;19932;-58
2024/01/26 10:44:38;;;;;;;;;;;19.90;45.60;;;;;;5070338;28;19936;-58
2024/01/26 10:47:05;;;;;;;;;;;19.90;45.50;;;;;;5056023;28;19932;-58
2024/01/26 10:49:32;;;;;;;;;;;19.90;45.50;;;;;;5055788;28;19943;-58
2024/01/26 10:51:59;;;;;;;;;;;19.90;45.50;;;;;;5066192;28;19925;-57
2024/01/26 10:54:25;;;;;;;;;;;19.90;45.50;;;;;;5063112;28;19930;-58
2024/01/26 10:56:52;;;;;;;;;;;19.90;45.50;;;;;;5052558;28;19920;-57
2024/01/26 10:59:20;;;;;;;;;;;19.90;45.50;;;;;;5070656;28;19974;-57
2024/01/26 11:01:47;;;;;;;;;;;19.90;45.50;;;;;;5053309;28;19921;-57
2024/01/26 11:04:14;;;;;;;;;;;19.90;45.50;;;;;;5058207;28;19928;-58
2024/01/26 11:06:40;;;;;;;;;;;19.90;45.50;;;;;;5047411;28;19977;-56
2024/01/26 11:09:08;;;;;;;;;;;20.00;45.60;;;;;;5050241;28;19920;-58
2024/01/26 11:11:36;;;;;;;;;;;20.00;45.60;;;;;;5056299;28;19924;-57
2024/01/26 11:14:03;;;;;;;;;;;19.90;45.50;;;;;;5056855;28;19971;-53
2024/01/26 11:16:35;;;;;;;;;;;19.90;45.50;;;;;;5076540;28;19982;-58
2024/01/26 11:19:02;;;;;;;;;;;20.00;45.60;;;;;;5069998;28;19932;-56
2024/01/26 11:21:39;;;;;;;;;;;19.90;45.50;;;;;;5067260;28;19924;-55
2024/01/26 11:24:16;;;;;;;;;;;19.90;45.50;;;;;;5072193;28;20026;-54
2024/01/26 11:26:43;;;;;;;;;;;19.90;45.50;;;;;;5069471;28;19924;-55
2024/01/26 11:29:13;;;;;;;;;;;19.90;45.50;;;;;;5069620;28;20411;-60
2024/01/26 11:31:43;;;;;;;;;;;19.90;45.50;;;;;;5052760;28;19940;-56
2024/01/26 11:34:19;;;;;;;;;;;19.90;45.50;;;;;;5071028;28;19967;-57
2024/01/26 11:36:46;;;;;;;;;;;19.90;45.50;;;;;;5069206;28;20027;-55
2024/01/26 11:39:15;;;;;;;;;;;19.90;45.50;;;;;;5069546;28;19920;-57
2024/01/26 11:41:42;;;;;;;;;;;20.00;45.60;;;;;;5061772;28;20027;-58
2024/01/26 11:44:09;;;;;;;;;;;19.90;45.50;;;;;;5051361;28;19920;-54
2024/01/26 11:46:36;;;;;;;;;;;19.90;45.50;;;;;;5058881;28;19925;-54
2024/01/26 11:49:04;;;;;;;;;;;20.00;45.70;;;;;;5049301;28;19982;-53
2024/01/26 11:51:31;;;;;;;;;;;19.90;45.60;;;;;;5066689;28;19931;-53
2024/01/26 11:53:58;;;;;;;;;;;20.00;46.20;;;;;;5069255;28;19928;-55
2024/01/26 11:56:25;;;;;;;;;;;20.00;45.70;;;;;;5043480;28;19920;-55
2024/01/26 11:58:52;;;;;;;;;;;20.00;45.70;;;;;;5049296;28;19932;-50
2024/01/26 12:01:18;;;;;;;;;;;20.00;45.70;;;;;;5068591;28;19931;-55
2024/01/26 12:03:45;;;;;;;;;;;20.00;45.70;;;;;;5065711;28;19927;-55
2024/01/26 12:06:14;;;;;;;;;;;20.00;45.70;;;;;;5054664;28;19920;-53
2024/01/26 12:08:40;;;;;;;;;;;20.00;45.70;;;;;;5051508;28;19935;-57
2024/01/26 12:11:07;;;;;;;;;;;20.00;45.70;;;;;;5054736;28;19978;-53
2024/01/26 12:13:34;;;;;;;;;;;20.00;45.70;;;;;;5053711;28;20003;-55
2024/01/26 12:16:03;;;;;;;;;;;20.00;45.70;;;;;;5050890;28;19943;-56
2024/01/26 12:18:29;;;;;;;;;;;20.00;45.70;;;;;;5054676;28;19921;-53
2024/01/26 12:20:57;;;;;;;;;;;20.00;45.80;;;;;;5049467;28;19924;-57
2024/01/26 12:23:25;;;;;;;;;;;20.00;45.70;;;;;;5055311;28;19928;-55
2024/01/26 12:25:52;;;;;;;;;;;20.00;45.80;;;;;;5072716;28;19933;-56
2024/01/26 12:28:19;;;;;;;;;;;20.00;45.80;;;;;;5053900;28;19921;-53
2024/01/26 12:30:47;;;;;;;;;;;20.00;45.80;;;;;;5053972;28;19928;-52
2024/01/26 12:33:14;;;;;;;;;;;20.00;45.80;;;;;;5053442;28;19929;-55
2024/01/26 12:35:42;;;;;;;;;;;20.00;45.80;;;;;;5053792;28;19927;-54
2024/01/26 12:38:08;;;;;;;;;;;20.00;45.80;;;;;;5064980;28;19920;-55
2024/01/26 12:40:36;;;;;;;;;;;20.00;45.80;;;;;;5051514;28;19928;-52
2024/01/26 12:43:03;;;;;;;;;;;20.00;45.80;;;;;;5053532;28;19920;-55
2024/01/26 12:45:30;;;;;;;;;;;20.00;45.80;;;;;;5053888;28;19920;-54
2024/01/26 12:47:57;;;;;;;;;;;20.00;45.80;;;;;;5053121;28;19931;-52
2024/01/26 12:50:24;;;;;;;;;;;20.00;45.80;;;;;;5035215;28;19920;-55
2024/01/26 12:52:51;;;;;;;;;;;20.00;45.80;;;;;;5054281;28;19940;-55
2024/01/26 12:55:18;;;;;;;;;;;20.00;45.80;;;;;;5052372;28;19921;-53
2024/01/26 12:57:46;;;;;;;;;;;20.00;45.80;;;;;;5056535;28;19928;-54
2024/01/26 13:00:15;;;;;;;;;;;20.00;45.80;;;;;;5053707;28;20416;-53
2024/01/26 13:02:41;;;;;;;;;;;20.00;45.80;;;;;;5067863;28;19927;-54
2024/01/26 13:05:09;;;;;;;;;;;20.00;45.80;;;;;;5053114;28;19920;-55
2024/01/26 13:07:36;;;;;;;;;;;20.00;45.80;;;;;;5053352;28;19950;-55
2024/01/26 13:10:04;;;;;;;;;;;20.00;45.80;;;;;;5067457;28;19927;-56
2024/01/26 13:12:31;;;;;;;;;;;20.00;45.80;;;;;;5054620;28;19933;-56
2024/01/26 13:14:59;;;;;;;;;;;20.00;45.80;;;;;;5053841;28;19958;-55
2024/01/26 13:17:26;;;;;;;;;;;20.00;45.80;;;;;;5069506;28;19920;-55
2024/01/26 13:19:53;;;;;;;;;;;20.00;45.80;;;;;;5050678;28;19925;-53
2024/01/26 13:22:19;;;;;;;;;;;20.00;45.80;;;;;;5047265;28;19952;-55
2024/01/26 13:24:47;;;;;;;;;;;20.00;45.80;;;;;;5051672;28;19936;-56
2024/01/26 13:27:15;;;;;;;;;;;20.00;45.80;;;;;;5070990;28;19920;-55
2024/01/26 13:29:41;;;;;;;;;;;20.00;45.80;;;;;;5051806;28;19920;-54
2024/01/26 13:32:10;;;;;;;;;;;20.00;45.80;;;;;;5050597;28;19920;-54
2024/01/26 13:34:37;;;;;;;;;;;20.00;45.90;;;;;;5064159;28;19931;-57
2024/01/26 13:37:04;;;;;;;;;;;20.00;45.90;;;;;;5070172;28;20008;-54
2024/01/26 13:39:30;;;;;;;;;;;20.00;45.90;;;;;;5053955;28;19970;-55
2024/01/26 13:41:57;;;;;;;;;;;20.00;45.90;;;;;;5048810;28;19973;-53
2024/01/26 13:44:24;;;;;;;;;;;20.00;45.90;;;;;;5050843;28;20288;-55
2024/01/26 13:46:51;;;;;;;;;;;20.00;45.90;;;;;;5052821;28;19932;-53
2024/01/26 13:49:19;;;;;;;;;;;20.00;45.90;;;;;;5051345;28;19963;-54
2024/01/26 13:51:46;;;;;;;;;;;20.00;45.90;;;;;;5052292;28;19988;-57
2024/01/26 13:54:14;;;;;;;;;;;20.00;45.90;;;;;;5069307;28;20282;-55
2024/01/26 13:56:40;;;;;;;;;;;20.00;45.90;;;;;;5067704;28;19920;-58
2024/01/26 13:59:07;;;;;;;;;;;20.00;45.90;;;;;;5049609;28;19974;-55
2024/01/26 14:01:35;;;;;;;;;;;20.00;46.00;;;;;;5070545;28;19978;-53
2024/01/26 14:04:02;;;;;;;;;;;20.00;46.00;;;;;;5054562;28;19928;-54
2024/01/26 14:06:30;;;;;;;;;;;20.00;46.00;;;;;;5049891;28;19924;-52
2024/01/26 14:08:57;;;;;;;;;;;20.10;46.10;;;;;;5051485;28;19977;-53
2024/01/26 14:11:23;;;;;;;;;;;20.00;46.00;;;;;;5054691;28;19974;-53
2024/01/26 14:13:50;;;;;;;;;;;20.00;46.00;;;;;;5068581;28;19926;-53
2024/01/26 14:16:17;;;;;;;;;;;20.00;46.60;;;;;;5050410;28;19925;-57